Time;durP1;ratioP1;P1;durP2;ratioP2;P2;SDS_P1;SDS_P2;PMS_P1;PMS_P2;Temp;Humidity;BMP_temperature;BMP_pressure;BME280_temperature;BME280_humidity;BME280_pressure;Samples;Min_cycle;Max_cycle;Signal;HPM_P1;HPM_P2
2022/03/12 00:00:38;;;;;;;4.50;4.10;;;;;;;-2.95;46.98;97421.72;4959808;28;20210;-64
2022/03/12 00:03:09;;;;;;;3.70;3.30;;;;;;;-2.98;44.60;97399.38;4935046;28;20213;-67
2022/03/12 00:05:40;;;;;;;3.90;3.50;;;;;;;-2.89;45.51;97418.75;4938510;28;20221;-66
2022/03/12 00:08:09;;;;;;;3.97;3.30;;;;;;;-2.93;45.95;97415.50;4958237;28;20296;-67
2022/03/12 00:10:41;;;;;;;4.60;4.20;;;;;;;-2.88;44.43;97420.41;4961843;28;20206;-64
2022/03/12 00:13:10;;;;;;;4.20;3.80;;;;;;;-3.09;44.90;97407.00;4960933;28;20237;-67
2022/03/12 00:15:38;;;;;;;3.63;3.43;;;;;;;-2.94;45.14;97418.19;4949229;28;20707;-65
2022/03/12 00:18:11;;;;;;;4.37;3.77;;;;;;;-3.13;46.68;97427.06;4943815;28;20249;-67
2022/03/12 00:20:39;;;;;;;4.40;4.00;;;;;;;-3.07;45.88;97434.47;4943972;28;20244;-64
2022/03/12 00:23:17;;;;;;;4.13;3.77;;;;;;;-3.28;45.41;97435.78;4964898;28;20272;-65
2022/03/12 00:25:48;;;;;;;8.13;4.83;;;;;;;-3.34;44.31;97439.56;4964679;28;20249;-65
2022/03/12 00:28:17;;;;;;;3.97;3.60;;;;;;;-3.40;46.50;97450.28;4961441;28;20538;-63
2022/03/12 00:30:47;;;;;;;4.00;3.60;;;;;;;-3.07;43.35;97450.03;4965353;28;20233;-63
2022/03/12 00:33:18;;;;;;;4.47;4.07;;;;;;;-3.07;44.48;97450.03;4914306;28;21221;-66
2022/03/12 00:35:48;;;;;;;5.03;4.17;;;;;;;-3.28;44.90;97452.16;4968907;28;20236;-67
2022/03/12 00:38:17;;;;;;;6.33;4.67;;;;;;;-3.36;44.74;97450.03;4937820;28;20454;-67
2022/03/12 00:40:45;;;;;;;5.00;4.60;;;;;;;-3.49;44.82;97449.91;4960946;28;20678;-65
2022/03/12 00:43:15;;;;;;;5.63;4.47;;;;;;;-3.65;44.77;97442.19;4964556;28;20862;-64
2022/03/12 00:45:43;;;;;;;7.20;4.90;;;;;;;-3.63;45.10;97442.09;4960066;28;20674;-64
2022/03/12 00:48:12;;;;;;;5.53;5.03;;;;;;;-3.49;45.32;97443.88;4947278;28;20717;-66
2022/03/12 00:51:01;;;;;;;4.80;4.40;;;;;;;-3.69;45.65;97445.88;4931807;28;20367;-68
2022/03/12 00:53:30;;;;;;;6.53;4.43;;;;;;;-3.62;45.10;97443.75;4948834;28;20427;-66
2022/03/12 00:55:58;;;;;;;5.30;4.80;;;;;;;-3.70;45.33;97440.78;4960355;28;20292;-67
2022/03/12 00:58:27;;;;;;;4.97;4.47;;;;;;;-3.65;45.79;97436.16;4958022;28;20402;-66
2022/03/12 01:00:55;;;;;;;3.83;3.53;;;;;;;-3.55;45.12;97434.72;4963363;28;20289;-66
2022/03/12 01:03:24;;;;;;;4.33;3.63;;;;;;;-3.59;45.58;97441.00;4955093;28;20497;-64
2022/03/12 01:05:57;;;;;;;4.20;3.90;;;;;;;-3.55;46.17;97437.31;4932322;28;20588;-66
2022/03/12 01:08:29;;;;;;;3.97;3.67;;;;;;;-3.68;46.11;97433.75;4938216;28;20808;-64
2022/03/12 01:11:00;;;;;;;4.30;3.90;;;;;;;-3.92;46.29;97442.84;4963786;28;20202;-67
2022/03/12 01:13:29;;;;;;;5.67;5.20;;;;;;;-3.83;46.00;97441.50;4962711;28;20438;-65
2022/03/12 01:15:57;;;;;;;4.63;4.20;;;;;;;-3.81;46.65;97439.66;4963056;28;20201;-66
2022/03/12 01:18:27;;;;;;;4.57;4.13;;;;;;;-3.78;45.61;97438.66;4960876;28;20646;-67
2022/03/12 01:20:55;;;;;;;4.70;4.13;;;;;;;-3.83;45.74;97438.91;4932740;28;20269;-65
2022/03/12 01:23:26;;;;;;;6.23;4.53;;;;;;;-3.93;46.80;97440.34;4934964;28;20569;-65
2022/03/12 01:25:56;;;;;;;7.17;4.70;;;;;;;-4.15;47.43;97438.13;4964578;28;20276;-66
2022/03/12 01:28:24;;;;;;;6.70;4.93;;;;;;;-4.15;47.43;97433.78;4955794;28;20917;-65
2022/03/12 01:30:54;;;;;;;4.47;3.77;;;;;;;-4.23;47.60;97438.56;4967151;28;20237;-67
2022/03/12 01:33:23;;;;;;;4.77;4.37;;;;;;;-4.18;47.47;97440.88;4960356;28;20205;-69
2022/03/12 01:35:51;;;;;;;4.67;3.90;;;;;;;-4.26;48.30;97444.72;4931411;28;20272;-65
2022/03/12 01:38:28;;;;;;;5.50;4.27;;;;;;;-4.05;46.63;97449.63;4933413;28;21210;-65
2022/03/12 01:41:01;;;;;;;4.37;3.93;;;;;;;-4.04;46.76;97458.22;4966563;28;20694;-64
2022/03/12 01:43:31;;;;;;;5.00;4.03;;;;;;;-4.08;47.28;97455.81;4961675;28;20458;-66
2022/03/12 01:46:01;;;;;;;6.00;3.73;;;;;;;-3.98;47.95;97455.28;4958808;28;20238;-64
2022/03/12 01:48:30;;;;;;;4.47;4.00;;;;;;;-4.19;47.22;97454.72;4958951;28;20561;-66
2022/03/12 01:50:59;;;;;;;3.77;3.40;;;;;;;-4.32;48.08;97458.00;4951009;28;20210;-66
2022/03/12 01:53:28;;;;;;;4.13;3.80;;;;;;;-4.25;49.42;97461.09;4929288;28;20334;-66
2022/03/12 01:55:58;;;;;;;4.77;4.10;;;;;;;-4.28;47.85;97461.25;4959969;28;20237;-67
2022/03/12 01:58:26;;;;;;;4.80;3.97;;;;;;;-4.24;49.75;97452.41;4957754;28;20827;-66
2022/03/12 02:00:57;;;;;;;4.30;4.00;;;;;;;-4.08;50.00;97455.00;4946295;28;20257;-65
2022/03/12 02:03:28;;;;;;;6.57;5.10;;;;;;;-4.12;50.18;97462.06;4963288;28;20301;-70
2022/03/12 02:05:57;;;;;;;4.30;4.00;;;;;;;-4.06;50.52;97458.31;4960645;28;20238;-68
2022/03/12 02:08:26;;;;;;;4.33;3.93;;;;;;;-4.20;50.81;97456.50;4924331;28;20336;-62
2022/03/12 02:10:59;;;;;;;4.30;4.03;;;;;;;-4.26;51.87;97462.84;4940522;28;20915;-69
2022/03/12 02:13:29;;;;;;;4.57;4.17;;;;;;;-4.29;51.93;97460.41;4964249;28;20206;-66
2022/03/12 02:16:06;;;;;;;5.17;4.30;;;;;;;-4.27;50.12;97457.75;4948604;28;20661;-67
2022/03/12 02:18:36;;;;;;;3.73;3.43;;;;;;;-4.38;52.66;97453.16;4963538;28;20212;-67
2022/03/12 02:21:05;;;;;;;4.40;4.00;;;;;;;-4.33;50.55;97452.94;4956686;28;20792;-66
2022/03/12 02:23:47;;;;;;;4.53;4.20;;;;;;;-4.27;50.86;97452.59;4929293;28;20229;-67
2022/03/12 02:26:15;;;;;;;4.47;4.07;;;;;;;-4.39;51.97;97457.50;4936491;28;20249;-66
2022/03/12 02:28:45;;;;;;;4.40;4.00;;;;;;;-4.42;53.54;97455.06;4957743;28;20305;-67
2022/03/12 02:31:14;;;;;;;5.17;4.13;;;;;;;-4.33;53.00;97452.94;4939985;28;20486;-63
2022/03/12 02:33:44;;;;;;;4.57;4.17;;;;;;;-4.51;54.76;97450.41;4964597;28;20344;-67
2022/03/12 02:36:13;;;;;;;4.20;3.90;;;;;;;-4.49;52.49;97452.91;4957752;28;20500;-65
2022/03/12 02:38:42;;;;;;;4.13;3.83;;;;;;;-4.44;52.06;97461.25;4904978;28;20364;-67
2022/03/12 02:41:14;;;;;;;5.50;4.33;;;;;;;-4.34;52.86;97456.44;4925514;28;20858;-66
2022/03/12 02:43:45;;;;;;;4.50;4.20;;;;;;;-4.29;52.10;97449.25;4954338;28;20579;-66
2022/03/12 02:46:14;;;;;;;6.03;4.03;;;;;;;-4.20;51.31;97451.31;4960593;28;20214;-68
2022/03/12 02:48:49;;;;;;;4.30;4.00;;;;;;;-4.09;50.47;97450.72;4958705;28;20336;-62
2022/03/12 02:51:17;;;;;;;5.13;4.50;;;;;;;-4.21;51.21;97447.88;4962336;28;20634;-64
2022/03/12 02:53:46;;;;;;;4.63;4.17;;;;;;;-4.33;51.56;97450.34;4917778;28;20249;-67
2022/03/12 02:56:16;;;;;;;4.73;3.70;;;;;;;-4.47;51.26;97449.31;4934808;28;20353;-62
2022/03/12 02:58:44;;;;;;;4.23;3.93;;;;;;;-4.48;52.02;97455.41;4954820;28;20985;-67
2022/03/12 03:01:14;;;;;;;4.07;3.77;;;;;;;-4.45;52.47;97438.91;4957899;28;20658;-65
2022/03/12 03:03:43;;;;;;;4.17;3.73;;;;;;;-4.50;51.55;97439.16;4957407;28;20256;-67
2022/03/12 03:06:14;;;;;;;4.53;4.20;;;;;;;-4.50;51.51;97436.56;4956923;28;20221;-67
2022/03/12 03:08:44;;;;;;;4.90;4.47;;;;;;;-4.31;52.07;97430.38;4960369;28;20233;-65
2022/03/12 03:11:14;;;;;;;4.60;4.20;;;;;;;-4.31;52.25;97431.22;4913442;28;21207;-62
2022/03/12 03:13:45;;;;;;;3.63;3.37;;;;;;;-4.24;51.05;97431.72;4964727;28;20722;-65
2022/03/12 03:16:19;;;;;;;3.70;3.40;;;;;;;-4.39;52.10;97449.72;4963484;28;20938;-67
2022/03/12 03:18:51;;;;;;;4.93;3.90;;;;;;;-4.20;50.81;97443.56;4959464;28;20598;-67
2022/03/12 03:21:20;;;;;;;4.60;4.20;;;;;;;-4.09;49.73;97443.78;4964040;28;20248;-68
2022/03/12 03:23:49;;;;;;;3.87;3.60;;;;;;;-4.18;50.32;97448.63;4961037;28;20678;-65
2022/03/12 03:26:21;;;;;;;3.97;3.57;;;;;;;-4.15;49.93;97448.50;4926120;28;20872;-63
2022/03/12 03:28:51;;;;;;;4.70;4.33;;;;;;;-4.10;50.40;97452.47;4958284;28;20225;-65
2022/03/12 03:31:19;;;;;;;4.13;3.80;;;;;;;-4.16;51.20;97447.63;4963535;28;20650;-70
2022/03/12 03:33:49;;;;;;;5.70;4.03;;;;;;;-4.09;49.70;97448.13;4942415;28;20218;-67
2022/03/12 03:36:18;;;;;;;3.30;3.10;;;;;;;-4.09;49.56;97443.78;4968511;28;20686;-66
2022/03/12 03:38:47;;;;;;;4.10;3.80;;;;;;;-4.07;49.34;97448.88;4939477;28;20582;-66
2022/03/12 03:41:16;;;;;;;5.90;4.00;;;;;;;-3.90;49.27;97449.69;4915897;28;20906;-63
2022/03/12 03:43:46;;;;;;;5.03;4.53;;;;;;;-4.01;48.90;97445.94;4963262;28;20323;-66
2022/03/12 03:46:18;;;;;;;4.67;4.07;;;;;;;-4.03;50.41;97445.22;4943772;28;20654;-68
2022/03/12 03:48:48;;;;;;;4.50;4.20;;;;;;;-4.08;49.92;97448.03;4961775;28;20741;-66
2022/03/12 03:51:16;;;;;;;4.70;4.20;;;;;;;-4.13;49.96;97436.28;4956500;28;20974;-66
2022/03/12 03:53:45;;;;;;;5.90;5.30;;;;;;;-4.11;49.64;97452.56;4953596;28;20301;-66
2022/03/12 03:56:13;;;;;;;4.63;4.20;;;;;;;-4.09;50.82;97459.31;4914765;28;20599;-68
2022/03/12 03:58:41;;;;;;;4.37;4.07;;;;;;;-4.09;50.12;97456.72;4965193;28;20638;-66
2022/03/12 04:01:12;;;;;;;5.10;4.13;;;;;;;-4.07;50.64;97448.88;4960353;28;20293;-66
2022/03/12 04:03:48;;;;;;;6.03;3.83;;;;;;;-4.13;50.41;97441.47;4960942;28;20682;-67
2022/03/12 04:06:18;;;;;;;4.33;4.03;;;;;;;-4.08;50.05;97442.88;4961613;28;20422;-65
2022/03/12 04:08:46;;;;;;;4.83;4.37;;;;;;;-4.19;50.44;97440.06;4962059;28;20253;-62
2022/03/12 04:11:16;;;;;;;4.23;3.83;;;;;;;-4.21;50.24;97441.88;4954378;28;20721;-67
2022/03/12 04:13:45;;;;;;;5.37;4.00;;;;;;;-4.16;50.03;97431.28;4924136;28;20356;-65
2022/03/12 04:16:14;;;;;;;5.00;4.40;;;;;;;-4.15;50.88;97436.38;4944020;28;20325;-65
2022/03/12 04:18:46;;;;;;;4.37;3.97;;;;;;;-4.15;49.95;97436.38;4966242;28;20429;-65
2022/03/12 04:21:16;;;;;;;4.77;4.30;;;;;;;-4.20;48.69;97438.38;4962579;28;20436;-64
2022/03/12 04:23:45;;;;;;;4.00;3.60;;;;;;;-4.17;50.69;97433.03;4962062;28;20238;-62
2022/03/12 04:26:14;;;;;;;4.77;4.27;;;;;;;-4.19;50.56;97439.19;4960344;28;20325;-64
2022/03/12 04:28:42;;;;;;;5.03;4.33;;;;;;;-4.15;50.98;97438.94;4921637;28;20245;-66
2022/03/12 04:31:11;;;;;;;3.30;3.03;;;;;;;-4.19;51.17;97439.19;4938988;28;20854;-63
2022/03/12 04:33:40;;;;;;;4.00;3.70;;;;;;;-4.23;49.86;97439.38;4959544;28;20308;-66
2022/03/12 04:36:11;;;;;;;4.93;4.10;;;;;;;-4.33;50.78;97440.81;4959176;28;20218;-67
2022/03/12 04:38:40;;;;;;;4.30;3.93;;;;;;;-4.37;50.80;97450.47;4958227;28;20844;-67
2022/03/12 04:41:08;;;;;;;3.97;3.67;;;;;;;-4.44;50.29;97449.16;4960115;28;20210;-68
2022/03/12 04:43:38;;;;;;;4.23;3.87;;;;;;;-4.49;50.71;97460.69;4923877;28;20286;-66
2022/03/12 04:46:06;;;;;;;4.20;3.80;;;;;;;-4.61;52.40;97460.41;4941704;28;20312;-62
2022/03/12 04:48:35;;;;;;;3.97;3.77;;;;;;;-4.67;51.25;97461.59;4957647;28;20721;-65
2022/03/12 04:51:03;;;;;;;5.07;4.17;;;;;;;-4.75;53.09;97466.31;4963996;28;20242;-63
2022/03/12 04:53:33;;;;;;;5.03;4.53;;;;;;;-4.53;52.36;97467.75;4938675;28;20726;-66
2022/03/12 04:56:01;;;;;;;4.10;3.70;;;;;;;-4.75;53.68;97470.66;4962841;28;20312;-62
2022/03/12 04:58:30;;;;;;;4.10;3.80;;;;;;;-5.13;54.82;97471.72;4914572;28;20621;-64
2022/03/12 05:00:58;;;;;;;4.50;4.10;;;;;;;-5.18;55.67;97473.72;4964165;28;20882;-64
2022/03/12 05:03:27;;;;;;;4.13;3.63;;;;;;;-5.14;58.91;97483.81;4938377;28;20590;-58
2022/03/12 05:06:00;;;;;;;6.47;4.10;;;;;;;-4.91;57.24;97484.41;4953365;28;20618;-59
2022/03/12 05:08:31;;;;;;;5.60;5.10;;;;;;;-4.91;57.10;97480.97;4962579;28;20484;-64
2022/03/12 05:11:01;;;;;;;4.37;4.00;;;;;;;-5.04;56.81;97491.09;4958063;28;20625;-65
2022/03/12 05:13:30;;;;;;;4.40;4.00;;;;;;;-5.18;60.60;97481.47;4918617;28;20268;-62
2022/03/12 05:16:05;;;;;;;4.67;4.23;;;;;;;-5.33;61.96;97483.94;4945995;28;20206;-64
2022/03/12 05:18:36;;;;;;;8.80;5.90;;;;;;;-5.31;64.03;97492.44;4938088;28;20609;-68
2022/03/12 05:21:05;;;;;;;10.13;6.57;;;;;;;-5.53;63.47;97496.06;4959306;28;20336;-67
2022/03/12 05:23:34;;;;;;;5.30;4.60;;;;;;;-5.44;64.89;97496.56;4955834;28;20512;-65
2022/03/12 05:26:05;;;;;;;4.77;4.37;;;;;;;-5.69;70.80;97500.31;4959667;28;20716;-65
2022/03/12 05:28:35;;;;;;;4.20;3.77;;;;;;;-5.62;71.03;97504.28;4918593;28;20438;-63
2022/03/12 05:31:04;;;;;;;5.17;4.67;;;;;;;-5.64;69.10;97500.94;4961764;28;20421;-64
2022/03/12 05:33:34;;;;;;;5.03;4.53;;;;;;;-5.61;67.52;97500.78;4920500;28;20209;-63
2022/03/12 05:36:03;;;;;;;5.13;4.67;;;;;;;-5.44;67.93;97499.94;4937046;28;20218;-64
2022/03/12 05:38:36;;;;;;;5.17;4.63;;;;;;;-5.63;68.82;97502.59;4959881;28;20319;-65
2022/03/12 05:41:10;;;;;;;4.63;4.33;;;;;;;-5.49;67.87;97506.25;4943018;28;20233;-62
2022/03/12 05:43:41;;;;;;;5.77;5.27;;;;;;;-5.61;68.16;97513.69;4952447;28;20292;-67
2022/03/12 05:46:09;;;;;;;5.07;4.57;;;;;;;-5.59;66.16;97513.63;4915166;28;20217;-62
2022/03/12 05:48:38;;;;;;;5.57;4.20;;;;;;;-5.39;65.44;97516.06;4922448;28;20910;-66
2022/03/12 05:51:09;;;;;;;5.77;4.77;;;;;;;-5.26;62.82;97518.88;4959679;28;20740;-63
2022/03/12 05:53:38;;;;;;;5.23;4.10;;;;;;;-5.16;61.49;97506.31;4961145;28;20490;-66
2022/03/12 05:56:07;;;;;;;4.27;3.87;;;;;;;-5.18;61.49;97530.56;4961338;28;20203;-59
2022/03/12 05:58:39;;;;;;;5.90;4.50;;;;;;;-5.06;61.17;97542.03;4960438;28;20341;-66
2022/03/12 06:01:08;;;;;;;4.70;4.30;;;;;;;-4.85;60.09;97529.75;4919823;28;20232;-62
2022/03/12 06:03:37;;;;;;;4.37;4.07;;;;;;;-4.53;58.00;97532.41;4938430;28;20642;-66
2022/03/12 06:06:05;;;;;;;3.90;3.70;;;;;;;-4.43;57.90;97538.78;4956347;28;20297;-63
2022/03/12 06:08:34;;;;;;;4.57;4.17;;;;;;;-4.14;54.72;97532.97;4956945;28;20297;-63
2022/03/12 06:11:03;;;;;;;3.93;3.63;;;;;;;-4.12;55.38;97534.53;4961604;28;20229;-64
2022/03/12 06:13:34;;;;;;;4.10;3.77;;;;;;;-3.92;56.00;97541.22;4959260;28;20914;-63
2022/03/12 06:16:03;;;;;;;7.20;5.17;;;;;;;-3.89;55.10;97539.38;4916250;28;20512;-60
2022/03/12 06:18:34;;;;;;;6.47;5.27;;;;;;;-3.79;53.54;97546.56;4957197;28;20252;-62
2022/03/12 06:21:03;;;;;;;6.27;5.20;;;;;;;-3.71;54.03;97538.38;4926384;28;20690;-61
2022/03/12 06:23:32;;;;;;;4.70;4.27;;;;;;;-3.69;52.90;97546.03;4957452;28;20836;-62
2022/03/12 06:26:02;;;;;;;4.37;4.07;;;;;;;-3.46;52.39;97542.16;4957675;28;20300;-59
2022/03/12 06:28:32;;;;;;;4.53;4.10;;;;;;;-3.31;50.45;97545.63;4958351;28;20218;-62
2022/03/12 06:31:03;;;;;;;5.27;3.93;;;;;;;-3.18;52.37;97547.53;4957865;28;20575;-62
2022/03/12 06:33:32;;;;;;;4.23;3.93;;;;;;;-3.05;52.71;97556.25;4932060;28;20209;-65
2022/03/12 06:36:02;;;;;;;4.30;4.00;;;;;;;-2.85;50.46;97551.63;4917268;28;20313;-61
2022/03/12 06:38:32;;;;;;;4.40;4.00;;;;;;;-2.71;49.47;97561.19;4941301;28;20214;-61
2022/03/12 06:41:00;;;;;;;4.80;3.90;;;;;;;-2.57;48.65;97561.22;4943202;28;20640;-59
2022/03/12 06:43:31;;;;;;;4.03;3.60;;;;;;;-2.60;47.62;97563.16;4957359;28;20712;-61
2022/03/12 06:46:01;;;;;;;5.90;4.03;;;;;;;-2.37;46.61;97562.63;4961223;28;20261;-59
2022/03/12 06:48:32;;;;;;;3.77;3.47;;;;;;;-2.31;46.22;97555.38;4931000;28;20268;-60
2022/03/12 06:51:01;;;;;;;3.93;3.63;;;;;;;-2.15;46.84;97550.91;4947493;28;20252;-65
2022/03/12 06:53:30;;;;;;;4.27;3.87;;;;;;;-1.87;45.36;97551.78;4961718;28;20292;-60
2022/03/12 06:55:59;;;;;;;3.73;3.47;;;;;;;-1.91;45.68;97552.91;4950261;28;20758;-65
2022/03/12 06:58:29;;;;;;;4.00;3.70;;;;;;;-1.90;45.79;97554.56;4962376;28;20229;-60
2022/03/12 07:00:58;;;;;;;3.47;3.27;;;;;;;-1.66;45.27;97557.38;4959175;28;20194;-61
2022/03/12 07:03:27;;;;;;;3.77;3.40;;;;;;;-1.57;45.35;97549.91;4931709;28;20225;-63
2022/03/12 07:05:56;;;;;;;3.97;3.67;;;;;;;-1.53;45.17;97557.41;4942012;28;20965;-64
2022/03/12 07:08:25;;;;;;;4.27;3.97;;;;;;;-1.37;43.65;97548.63;4963423;28;20312;-62
2022/03/12 07:10:53;;;;;;;4.10;3.80;;;;;;;-1.23;43.62;97566.78;4945632;28;20324;-62
2022/03/12 07:13:23;;;;;;;3.73;3.43;;;;;;;-1.32;42.48;97562.19;4967022;28;20238;-61
2022/03/12 07:15:51;;;;;;;3.63;3.43;;;;;;;-0.98;43.11;97566.91;4939865;28;20201;-62
2022/03/12 07:18:19;;;;;;;4.67;4.07;;;;;;;-0.87;43.79;97567.03;4932057;28;20233;-59
2022/03/12 07:20:48;;;;;;;4.07;3.67;;;;;;;-0.61;42.43;97565.25;4937522;28;20233;-61
2022/03/12 07:23:19;;;;;;;4.47;4.07;;;;;;;-0.48;41.63;97573.06;4948292;28;20758;-63
2022/03/12 07:25:48;;;;;;;4.70;4.33;;;;;;;-0.44;42.39;97571.09;4944386;28;20320;-62
2022/03/12 07:28:19;;;;;;;4.53;4.10;;;;;;;-0.22;42.09;97575.66;4951432;28;20400;-63
2022/03/12 07:30:47;;;;;;;5.37;4.00;;;;;;;-0.13;41.58;97571.59;4962695;28;20372;-60
2022/03/12 07:33:16;;;;;;;3.97;3.63;;;;;;;-0.20;41.29;97579.00;4934228;28;20218;-64
2022/03/12 07:35:45;;;;;;;4.00;3.67;;;;;;;-0.34;40.62;97573.94;4937359;28;20876;-64
2022/03/12 07:38:14;;;;;;;4.90;4.50;;;;;;;-0.15;40.10;97570.88;4947371;28;20939;-64
2022/03/12 07:40:43;;;;;;;5.07;4.40;;;;;;;0.08;40.38;97576.22;4958067;28;21014;-59
2022/03/12 07:43:12;;;;;;;3.63;3.40;;;;;;;0.13;39.57;97561.94;4949633;28;20220;-65
2022/03/12 07:45:40;;;;;;;4.37;3.97;;;;;;;0.34;39.42;97570.94;4957636;28;20257;-60
2022/03/12 07:48:09;;;;;;;4.93;4.13;;;;;;;0.18;39.20;97572.03;4911866;28;20757;-62
2022/03/12 07:51:00;;;;;;;4.00;3.70;;;;;;;0.48;39.00;97578.59;4956799;28;20221;-61
2022/03/12 07:53:28;;;;;;;6.77;3.67;;;;;;;0.98;39.27;97572.44;4945722;28;20222;-65
2022/03/12 07:55:59;;;;;;;4.13;3.73;;;;;;;1.32;39.30;97572.47;4951787;28;20214;-61
2022/03/12 07:58:28;;;;;;;11.57;4.87;;;;;;;1.31;38.64;97570.81;4945686;28;20226;-62
2022/03/12 08:00:58;;;;;;;4.70;4.30;;;;;;;1.14;38.67;97569.50;4967018;28;20226;-63
2022/03/12 08:03:28;;;;;;;4.93;4.00;;;;;;;1.52;37.18;97576.22;4949820;28;20237;-61
2022/03/12 08:05:57;;;;;;;3.97;3.70;;;;;;;1.46;39.47;97578.47;4922243;28;20324;-61
2022/03/12 08:08:26;;;;;;;4.40;4.10;;;;;;;1.08;38.72;97570.78;4948478;28;21404;-65
2022/03/12 08:13:44;;;;;;;4.67;4.30;;;;;;;1.29;38.26;97580.53;4948844;28;20339;-64
2022/03/12 08:16:15;;;;;;;4.00;3.70;;;;;;;1.51;38.97;97576.31;4953139;28;20300;-64
2022/03/12 08:18:44;;;;;;;4.30;4.00;;;;;;;1.62;38.76;97573.72;4948454;28;21123;-65
2022/03/12 08:21:13;;;;;;;4.00;3.70;;;;;;;1.50;38.86;97575.47;4912823;28;20333;-65
2022/03/12 08:23:42;;;;;;;5.10;4.63;;;;;;;1.22;37.44;97574.13;4940503;28;20675;-65
2022/03/12 08:26:10;;;;;;;5.20;4.70;;;;;;;1.49;37.63;97578.22;4943276;28;20210;-62
2022/03/12 08:28:40;;;;;;;4.40;4.00;;;;;;;1.73;37.42;97578.97;4960774;28;20697;-62
2022/03/12 08:31:09;;;;;;;5.33;4.53;;;;;;;1.36;37.92;97571.31;4942079;28;20252;-61
2022/03/12 08:33:38;;;;;;;4.40;4.07;;;;;;;1.40;37.75;97580.59;4953438;28;20218;-67
2022/03/12 08:36:07;;;;;;;4.60;4.20;;;;;;;1.52;37.80;97578.81;4908272;28;20413;-64
2022/03/12 08:38:36;;;;;;;4.13;3.83;;;;;;;1.82;37.55;97579.19;4960789;28;20210;-63
2022/03/12 08:41:06;;;;;;;8.30;4.60;;;;;;;1.56;37.92;97576.78;4943094;28;20216;-61
2022/03/12 08:43:36;;;;;;;5.20;4.70;;;;;;;1.29;38.02;97575.31;4966474;28;20413;-65
2022/03/12 08:46:05;;;;;;;3.93;3.67;;;;;;;1.55;37.47;97577.75;4944272;28;20581;-64
2022/03/12 08:48:35;;;;;;;4.13;3.70;;;;;;;1.65;36.23;97583.09;4966606;28;20617;-66
2022/03/12 08:51:04;;;;;;;4.50;4.10;;;;;;;1.90;37.01;97579.41;4928294;28;20376;-64
2022/03/12 08:53:34;;;;;;;4.80;4.23;;;;;;;2.23;37.29;97576.88;4960259;28;20637;-66
2022/03/12 08:56:03;;;;;;;5.03;3.73;;;;;;;2.67;37.63;97569.91;4957072;28;20638;-63
2022/03/12 08:58:32;;;;;;;4.80;4.40;;;;;;;2.70;37.36;97568.81;4960431;28;20813;-66
2022/03/12 09:01:02;;;;;;;4.20;3.90;;;;;;;2.92;36.39;97575.72;4958216;28;20241;-63
2022/03/12 09:03:31;;;;;;;4.40;4.07;;;;;;;3.12;34.63;97574.09;4961148;28;20245;-65
2022/03/12 09:06:00;;;;;;;4.63;4.23;;;;;;;3.41;34.82;97573.44;4960191;28;20544;-61
2022/03/12 09:08:29;;;;;;;4.33;4.00;;;;;;;3.69;35.00;97573.75;4921730;28;20317;-65
2022/03/12 09:10:59;;;;;;;4.83;4.43;;;;;;;3.52;34.14;97571.69;4958878;28;20213;-64
2022/03/12 09:13:28;;;;;;;4.77;4.37;;;;;;;3.56;36.10;97562.63;4958161;28;20313;-63
2022/03/12 09:15:57;;;;;;;4.00;3.70;;;;;;;3.74;34.43;97557.59;4959775;28;20296;-63
2022/03/12 09:18:26;;;;;;;4.27;3.87;;;;;;;3.98;35.06;97565.16;4957534;28;20324;-66
2022/03/12 09:20:55;;;;;;;3.80;3.50;;;;;;;3.76;34.38;97579.25;4961336;28;20375;-62
2022/03/12 09:23:25;;;;;;;4.20;3.87;;;;;;;3.65;34.17;97567.09;4921210;28;20307;-67
2022/03/12 09:25:53;;;;;;;4.27;3.90;;;;;;;3.93;34.28;97561.28;4956458;28;20295;-66
2022/03/12 09:28:23;;;;;;;4.90;4.47;;;;;;;3.73;34.80;97567.28;4960815;28;20901;-64
2022/03/12 09:30:52;;;;;;;5.70;4.70;;;;;;;3.76;34.14;97568.78;4959297;28;20202;-63
2022/03/12 09:33:22;;;;;;;5.87;4.33;;;;;;;4.52;34.03;97550.91;4963188;28;20292;-66
2022/03/12 09:35:53;;;;;;;5.30;4.10;;;;;;;4.43;33.74;97552.56;4962865;28;20202;-65
2022/03/12 09:38:22;;;;;;;3.93;3.73;;;;;;;3.94;34.04;97547.22;4919998;28;20447;-64
2022/03/12 09:40:52;;;;;;;4.97;4.57;;;;;;;4.03;34.36;97547.25;4968690;28;20496;-63
2022/03/12 09:43:21;;;;;;;4.33;3.93;;;;;;;3.97;34.27;97557.41;4959048;28;20499;-62
2022/03/12 09:45:49;;;;;;;4.73;4.43;;;;;;;4.33;35.00;97553.38;4961120;28;20850;-65
2022/03/12 09:48:20;;;;;;;5.07;4.57;;;;;;;4.13;34.20;97551.69;4957024;28;20440;-66
2022/03/12 09:50:48;;;;;;;4.70;4.30;;;;;;;4.29;34.29;97543.28;4962110;28;20226;-67
2022/03/12 09:53:16;;;;;;;4.97;4.47;;;;;;;3.96;33.92;97535.59;4918832;28;21053;-65
2022/03/12 09:55:45;;;;;;;4.90;4.10;;;;;;;4.35;34.31;97543.56;4964063;28;20317;-65
2022/03/12 09:58:15;;;;;;;4.50;4.10;;;;;;;3.99;34.36;97535.38;4954223;28;20225;-66
2022/03/12 10:00:44;;;;;;;4.97;4.47;;;;;;;4.32;33.90;97535.97;4963786;28;20301;-66
2022/03/12 10:03:12;;;;;;;5.63;4.67;;;;;;;4.48;34.16;97532.00;4958672;28;20653;-65
2022/03/12 10:05:41;;;;;;;4.63;4.13;;;;;;;4.49;33.71;97529.22;4958986;28;20834;-67
2022/03/12 10:08:09;;;;;;;4.70;4.30;;;;;;;4.71;34.08;97529.09;4959417;28;20405;-67
2022/03/12 10:10:39;;;;;;;4.80;4.43;;;;;;;4.67;33.89;97525.09;4924125;28;20224;-65
2022/03/12 10:13:07;;;;;;;5.10;4.70;;;;;;;4.62;33.57;97525.53;4964004;28;20352;-63
2022/03/12 10:15:37;;;;;;;4.40;4.10;;;;;;;4.87;33.62;97524.13;4957079;28;20787;-64
2022/03/12 10:18:06;;;;;;;4.40;4.10;;;;;;;4.87;33.85;97518.03;4962606;28;20229;-63
2022/03/12 10:20:37;;;;;;;4.60;4.20;;;;;;;4.77;33.64;97528.56;4957015;28;20324;-65
2022/03/12 10:23:07;;;;;;;4.80;4.30;;;;;;;4.79;32.83;97531.88;4959213;28;20256;-64
2022/03/12 10:25:36;;;;;;;4.80;4.40;;;;;;;4.69;32.84;97525.78;4923721;28;20218;-66
2022/03/12 10:28:04;;;;;;;4.80;4.30;;;;;;;4.79;33.50;97529.25;4959517;28;20784;-63
2022/03/12 10:30:34;;;;;;;4.67;4.27;;;;;;;5.05;33.08;97518.16;4956658;28;20608;-66
2022/03/12 10:33:04;;;;;;;4.13;3.80;;;;;;;5.08;33.33;97520.50;4954012;28;20316;-63
2022/03/12 10:35:34;;;;;;;5.10;4.70;;;;;;;4.91;32.37;97514.16;4961974;28;20320;-67
2022/03/12 10:38:03;;;;;;;5.83;4.60;;;;;;;5.14;32.13;97498.09;4955016;28;20241;-64
2022/03/12 10:40:33;;;;;;;4.57;4.17;;;;;;;5.28;32.64;97510.78;4920261;28;20598;-67
2022/03/12 10:43:07;;;;;;;5.10;4.60;;;;;;;5.38;31.98;97508.13;4963105;28;20305;-65
2022/03/12 10:45:40;;;;;;;5.40;3.80;;;;;;;5.37;31.88;97498.59;4957641;28;20271;-66
2022/03/12 10:48:10;;;;;;;4.50;4.10;;;;;;;5.49;32.54;97499.25;4955699;28;20684;-65
2022/03/12 10:50:41;;;;;;;4.73;4.40;;;;;;;5.69;32.80;97502.63;4959630;28;20237;-68
2022/03/12 10:53:10;;;;;;;5.37;4.87;;;;;;;5.80;31.96;97497.16;4954660;28;20514;-66
2022/03/12 10:55:41;;;;;;;4.83;4.40;;;;;;;5.72;32.37;97514.66;4960356;28;20268;-67
2022/03/12 10:58:12;;;;;;;4.57;4.20;;;;;;;5.83;32.59;97503.09;4915854;28;20661;-66
2022/03/12 11:00:42;;;;;;;4.57;4.17;;;;;;;5.97;32.98;97504.44;4962917;28;20229;-66
2022/03/12 11:03:15;;;;;;;4.10;3.80;;;;;;;5.91;31.94;97492.72;4955165;28;20465;-65
2022/03/12 11:05:46;;;;;;;4.30;3.93;;;;;;;6.06;31.19;97493.03;4963284;28;20202;-67
2022/03/12 11:08:20;;;;;;;4.60;4.20;;;;;;;6.11;32.36;97489.97;4959944;28;20340;-65
2022/03/12 11:10:55;;;;;;;4.50;4.10;;;;;;;6.11;32.49;97487.34;4961243;28;20515;-67
2022/03/12 11:13:38;;;;;;;4.10;3.47;;;;;;;6.25;32.05;97486.03;4958771;28;20617;-67
2022/03/12 11:16:14;;;;;;;4.97;4.57;;;;;;;6.30;31.37;97484.59;4955399;28;20641;-66
2022/03/12 11:18:59;;;;;;;4.50;4.07;;;;;;;6.39;32.60;97474.97;4959507;28;20752;-63
2022/03/12 11:21:33;;;;;;;4.27;3.97;;;;;;;6.67;31.90;97482.78;4957594;28;20264;-65
2022/03/12 11:24:03;;;;;;;4.57;4.10;;;;;;;6.64;32.08;97473.41;4961328;28;20451;-65
2022/03/12 11:26:32;;;;;;;4.93;4.53;;;;;;;6.46;31.21;97472.56;4963259;28;20740;-65
2022/03/12 11:29:01;;;;;;;4.97;4.57;;;;;;;6.54;31.18;97474.47;4923213;28;20337;-65
2022/03/12 11:31:48;;;;;;;4.20;3.90;;;;;;;6.66;31.07;97467.97;4959458;28;20816;-66
2022/03/12 11:34:20;;;;;;;4.57;4.17;;;;;;;6.84;31.89;97473.22;4959673;28;20248;-69
2022/03/12 11:37:00;;;;;;;4.10;3.80;;;;;;;6.67;30.80;97461.72;4961779;28;20230;-67
2022/03/12 11:39:29;;;;;;;4.60;4.00;;;;;;;6.93;31.03;97459.13;4962018;28;20289;-66
2022/03/12 11:42:06;;;;;;;4.93;4.43;;;;;;;6.64;31.99;97457.59;4941841;28;20209;-65
2022/03/12 11:44:35;;;;;;;5.57;5.10;;;;;;;6.43;31.37;97452.63;4962699;28;20502;-67
2022/03/12 11:47:04;;;;;;;4.77;4.40;;;;;;;6.46;31.59;97454.16;4964824;28;20229;-65
2022/03/12 11:49:34;;;;;;;4.97;4.57;;;;;;;6.70;31.53;97444.81;4962188;28;20210;-67
2022/03/12 11:52:04;;;;;;;4.83;4.40;;;;;;;6.47;31.69;97437.38;4959387;28;20233;-65